LFOT/TUF METAR and TAF weather

Enter ICAO airport designator
Station Type Date Time Source
LFOT METAR 2020/07/08 01:30 UTC NOAA

LFOT 080130Z AUTO 34004KT CAVOK 14/09 Q1020 NOSIG


Station Type Date Time Source
LFOT Decoded METAR 2020/07/08 01:30 UTC NOAA

Tours, France (LFOT) 47-27N 000-43E 112M
Jul 07, 2020 - 09:30 PM EDT / 2020.07.08 0130 UTC
Wind: from the NNW (340 degrees) at 5 MPH (4 KT):0
Visibility: greater than 7 mile(s):0
Temperature: 57 F (14 C)
Dew Point: 48 F (9 C)
Relative Humidity: 71%
Pressure (altimeter): 30.12 in. Hg (1020 hPa)
ob: LFOT 080130Z AUTO 34004KT CAVOK 14/09 Q1020 NOSIG
cycle: 1

Station Type Date Time Source
LFOT TAF 2020/07/07 18:21 UTC NOAA

TAF TAF LFOT 071700Z 0718/0818 31005KT CAVOK

Example: see airport list